createdAt,value
2019-04-22T00:00:57.327Z,13.70
2019-04-22T00:03:36.086Z,13.80
2019-04-22T00:06:17.737Z,13.80
2019-04-22T00:08:57.677Z,13.80
2019-04-22T00:13:56.970Z,13.90
2019-04-22T00:16:33.909Z,13.90
2019-04-22T00:19:07.877Z,13.80
2019-04-22T00:21:37.294Z,13.80
2019-04-22T00:23:59.558Z,13.80
2019-04-22T00:26:37.923Z,13.70
2019-04-22T00:29:11.349Z,13.60
2019-04-22T00:31:46.000Z,13.60
2019-04-22T00:34:16.738Z,13.50
2019-04-22T00:36:50.670Z,13.50
2019-04-22T00:39:33.841Z,13.40
2019-04-22T00:41:55.267Z,13.40
2019-04-22T00:44:25.517Z,13.40
2019-04-22T00:47:04.069Z,13.50
2019-04-22T00:52:05.191Z,13.40
2019-04-22T00:54:31.130Z,13.30
2019-04-22T00:57:04.136Z,13.20
2019-04-22T00:59:28.636Z,13.20
2019-04-22T01:02:07.019Z,13.20
2019-04-22T01:04:39.190Z,13.20
2019-04-22T01:07:03.805Z,13.10
2019-04-22T01:09:40.392Z,13.00
2019-04-22T01:12:13.518Z,13.00
2019-04-22T01:14:41.687Z,12.90
2019-04-22T01:17:06.016Z,12.80
2019-04-22T01:19:52.625Z,12.70
2019-04-22T01:22:17.641Z,12.70
2019-04-22T01:24:42.188Z,12.60
2019-04-22T01:27:08.164Z,12.50
2019-04-22T01:29:41.988Z,12.50
2019-04-22T01:32:00.292Z,12.40
2019-04-22T01:34:45.687Z,12.30
2019-04-22T01:37:19.779Z,12.30
2019-04-22T01:39:57.247Z,12.20
2019-04-22T01:42:37.654Z,12.30
2019-04-22T01:44:59.630Z,12.20
2019-04-22T01:47:32.518Z,12.30
2019-04-22T01:50:06.156Z,12.30
2019-04-22T01:52:52.088Z,12.30
2019-04-22T01:55:10.398Z,12.30
2019-04-22T01:57:37.706Z,12.30
2019-04-22T02:00:00.418Z,12.20
2019-04-22T02:02:43.937Z,12.20
2019-04-22T02:05:11.983Z,12.10
2019-04-22T02:07:42.417Z,12.00
2019-04-22T02:10:13.995Z,12.00
2019-04-22T02:12:53.301Z,12.00
2019-04-22T02:15:12.491Z,12.00
2019-04-22T02:17:53.408Z,11.90
2019-04-22T02:20:17.947Z,11.90
2019-04-22T02:23:40.375Z,11.90
2019-04-22T02:25:56.412Z,11.90
2019-04-22T02:28:35.634Z,11.90
2019-04-22T02:36:19.737Z,11.80
2019-04-22T02:48:53.347Z,11.80
2019-04-22T02:51:21.939Z,11.80
2019-04-22T02:56:25.067Z,11.70
2019-04-22T02:58:55.044Z,11.70
2019-04-22T03:01:25.659Z,11.70
2019-04-22T03:06:24.460Z,11.60
2019-04-22T03:08:53.811Z,11.70
2019-04-22T03:11:18.574Z,11.70
2019-04-22T03:13:55.115Z,11.80
2019-04-22T03:21:24.199Z,11.70
2019-04-22T03:24:08.929Z,11.70
2019-04-22T03:26:34.484Z,11.70
2019-04-22T03:39:44.972Z,12.00
2019-04-22T03:42:06.370Z,11.90
2019-04-22T03:47:11.691Z,11.80
2019-04-22T03:54:42.997Z,11.60
2019-04-22T03:57:25.971Z,11.50
2019-04-22T03:59:41.885Z,11.50
2019-04-22T04:02:13.937Z,11.40
2019-04-22T04:09:38.575Z,11.30
2019-04-22T04:12:21.601Z,11.30
2019-04-22T04:14:53.623Z,11.30
2019-04-22T04:19:58.029Z,11.30
2019-04-22T04:22:30.705Z,11.30
2019-04-22T04:25:22.089Z,11.30
2019-04-22T04:27:49.014Z,11.40
2019-04-22T04:30:05.543Z,11.40
2019-04-22T04:37:42.378Z,11.50
2019-04-22T04:47:44.177Z,11.60
2019-04-22T04:55:10.343Z,11.80
2019-04-22T05:02:46.717Z,12.10
2019-04-22T05:05:12.061Z,12.20
2019-04-22T05:15:11.563Z,12.30
2019-04-22T05:20:24.285Z,12.20
2019-04-22T05:22:43.051Z,12.30
2019-04-22T05:25:12.993Z,12.30
2019-04-22T05:27:39.699Z,12.30
2019-04-22T05:30:23.390Z,12.30
2019-04-22T05:32:46.167Z,12.30
2019-04-22T05:35:14.474Z,12.30
2019-04-22T05:37:50.311Z,12.30
2019-04-22T05:40:20.561Z,12.30
2019-04-22T05:42:46.272Z,12.40
2019-04-22T05:47:51.858Z,12.50
2019-04-22T05:50:19.087Z,12.60
2019-04-22T05:52:57.316Z,12.60
2019-04-22T05:55:30.524Z,12.70
2019-04-22T06:01:03.965Z,13.30
2019-04-22T06:03:06.978Z,13.60
2019-04-22T06:05:35.093Z,13.80
2019-04-22T06:08:23.331Z,14.00
2019-04-22T06:10:58.099Z,14.10
2019-04-22T06:13:28.054Z,13.80
2019-04-22T06:16:01.844Z,13.70
2019-04-22T06:18:33.459Z,13.70
2019-04-22T06:21:11.143Z,13.80
2019-04-22T06:23:42.386Z,13.80
2019-04-22T06:26:19.491Z,13.80
2019-04-22T06:28:46.033Z,13.80
2019-04-22T06:31:23.092Z,13.90
2019-04-22T06:33:44.297Z,14.00
2019-04-22T06:36:15.575Z,14.10
2019-04-22T06:38:46.653Z,14.30
2019-04-22T06:41:19.800Z,14.40
2019-04-22T06:43:56.032Z,14.60
2019-04-22T06:46:22.427Z,14.70
2019-04-22T06:48:48.537Z,14.80
2019-04-22T06:51:21.297Z,14.90
2019-04-22T06:53:47.737Z,14.90
2019-04-22T06:56:35.069Z,14.90
2019-04-22T06:58:55.029Z,15.00
2019-04-22T07:06:35.091Z,15.30
2019-04-22T07:11:28.109Z,15.50
2019-04-22T07:14:01.625Z,15.60
2019-04-22T07:16:31.927Z,15.70
2019-04-22T07:19:02.195Z,15.80
2019-04-22T07:21:33.600Z,15.90
2019-04-22T07:24:22.796Z,16.00
2019-04-22T07:26:50.803Z,16.10
2019-04-22T07:29:07.446Z,16.20
2019-04-22T07:31:34.081Z,16.30
2019-04-22T07:34:16.382Z,16.40
2019-04-22T07:39:10.581Z,16.60
2019-04-22T07:46:54.813Z,17.00
2019-04-22T07:49:18.321Z,17.10
2019-04-22T07:51:44.460Z,17.10
2019-04-22T07:54:24.431Z,17.30
2019-04-22T07:56:55.247Z,17.40
2019-04-22T07:59:26.834Z,17.60
2019-04-22T08:01:53.707Z,17.80
2019-04-22T08:04:35.903Z,17.80
2019-04-22T08:06:57.534Z,18.00
2019-04-22T08:09:33.902Z,18.10
2019-04-22T08:11:53.937Z,18.20
2019-04-22T08:14:32.834Z,18.50
2019-04-22T08:17:17.198Z,18.50
2019-04-22T08:19:27.533Z,18.70
2019-04-22T08:24:35.574Z,18.90
2019-04-22T08:27:04.849Z,19.00
2019-04-22T08:29:45.976Z,19.20
2019-04-22T08:32:05.106Z,19.30
2019-04-22T08:34:42.167Z,19.40
2019-04-22T08:37:47.601Z,19.50
2019-04-22T08:40:13.712Z,19.70
2019-04-22T08:45:14.354Z,20.10
2019-04-22T08:47:55.083Z,20.40
2019-04-22T08:50:16.458Z,20.50
2019-04-22T08:52:57.703Z,20.50
2019-04-22T08:55:31.345Z,20.70
2019-04-22T09:00:37.309Z,20.90
2019-04-22T09:03:10.704Z,21.10
2019-04-22T09:05:48.706Z,21.20
2019-04-22T09:08:15.567Z,21.40
2019-04-22T09:10:44.699Z,21.60
2019-04-22T09:13:08.339Z,21.70
2019-04-22T09:15:43.675Z,21.80
2019-04-22T09:18:19.707Z,21.90
2019-04-22T09:20:49.714Z,22.10
2019-04-22T09:23:21.602Z,22.20
2019-04-22T09:25:48.825Z,22.30
2019-04-22T09:28:23.264Z,22.50
2019-04-22T09:30:56.923Z,22.60
2019-04-22T09:33:21.112Z,22.70
2019-04-22T09:38:31.481Z,22.90
2019-04-22T09:40:53.952Z,23.10
2019-04-22T09:43:32.077Z,23.20
2019-04-22T09:46:00.454Z,23.30
2019-04-22T09:48:31.898Z,23.50
2019-04-22T09:51:00.473Z,23.60
2019-04-22T09:53:29.745Z,23.70
2019-04-22T09:56:03.964Z,23.70
2019-04-22T09:58:31.870Z,23.60
2019-04-22T10:01:19.191Z,23.70
2019-04-22T10:03:49.731Z,23.90
2019-04-22T10:06:23.226Z,23.90
2019-04-22T10:08:40.782Z,24.10
2019-04-22T10:11:23.594Z,24.20
2019-04-22T10:16:26.932Z,24.20
2019-04-22T10:18:53.033Z,24.20
2019-04-22T10:21:26.841Z,24.40
2019-04-22T10:23:51.521Z,24.50
2019-04-22T10:26:28.029Z,24.60
2019-04-22T10:31:34.501Z,24.80
2019-04-22T10:33:48.198Z,25.00
2019-04-22T10:36:01.535Z,24.90
2019-04-22T10:38:32.438Z,24.70
2019-04-22T10:41:02.714Z,24.70
2019-04-22T10:43:32.907Z,24.80
2019-04-22T10:46:02.408Z,24.90
2019-04-22T10:48:32.420Z,24.80
2019-04-22T10:51:02.369Z,24.90
2019-04-22T10:53:31.705Z,25.00
2019-04-22T10:56:01.071Z,25.10
2019-04-22T10:58:30.876Z,25.20
2019-04-22T11:01:00.346Z,25.20
2019-04-22T11:03:31.046Z,25.40
2019-04-22T11:06:01.250Z,25.50
2019-04-22T11:08:38.531Z,25.50
2019-04-22T11:11:16.902Z,25.50
2019-04-22T11:13:33.789Z,25.70
2019-04-22T11:16:05.460Z,25.70
2019-04-22T11:18:35.776Z,25.60
2019-04-22T11:21:05.496Z,25.50
2019-04-22T11:23:36.150Z,25.60
2019-04-22T11:26:08.159Z,25.60
2019-04-22T11:28:38.115Z,25.60
2019-04-22T11:31:08.243Z,25.50
2019-04-22T11:33:38.542Z,25.40
2019-04-22T11:36:08.341Z,25.20
2019-04-22T11:38:48.708Z,25.20
2019-04-22T11:41:09.931Z,25.30
2019-04-22T11:43:41.058Z,25.20
2019-04-22T11:46:11.424Z,25.20
2019-04-22T11:48:42.206Z,25.20
2019-04-22T11:51:11.732Z,25.50
2019-04-22T11:53:42.766Z,25.70
2019-04-22T11:56:13.074Z,25.70
2019-04-22T11:58:42.709Z,25.90
2019-04-22T12:01:12.821Z,26.20
2019-04-22T12:03:42.211Z,25.90
2019-04-22T12:06:11.467Z,25.70
2019-04-22T12:08:41.564Z,25.50
2019-04-22T12:11:13.606Z,25.40
2019-04-22T12:13:44.099Z,25.40
2019-04-22T12:16:13.654Z,25.60
2019-04-22T12:18:43.122Z,25.80
2019-04-22T12:21:13.134Z,25.60
2019-04-22T12:23:43.450Z,25.40
2019-04-22T12:26:16.851Z,25.30
2019-04-22T12:28:44.751Z,25.40
2019-04-22T12:31:15.356Z,25.60
2019-04-22T12:33:45.404Z,25.70
2019-04-22T12:36:14.996Z,25.80
2019-04-22T12:38:45.276Z,25.70
2019-04-22T12:41:16.048Z,25.50
2019-04-22T12:43:45.579Z,25.50
2019-04-22T12:46:16.444Z,25.40
2019-04-22T12:48:49.789Z,25.40
2019-04-22T12:51:22.920Z,25.30
2019-04-22T12:53:52.845Z,25.40
2019-04-22T12:56:23.753Z,25.70
2019-04-22T12:58:53.967Z,25.80
2019-04-22T13:01:24.498Z,25.70
2019-04-22T13:03:57.683Z,25.90
2019-04-22T13:06:25.811Z,26.10
2019-04-22T13:08:56.590Z,26.20
2019-04-22T13:11:30.810Z,26.20
2019-04-22T13:13:56.854Z,26.00
2019-04-22T13:16:26.987Z,25.90
2019-04-22T13:19:03.195Z,26.00
2019-04-22T13:21:28.927Z,26.00
2019-04-22T13:23:59.252Z,25.80
2019-04-22T13:26:29.752Z,26.10
2019-04-22T13:28:59.223Z,26.20
2019-04-22T13:31:28.988Z,26.30
2019-04-22T13:34:01.716Z,26.30
2019-04-22T13:36:31.227Z,26.30
2019-04-22T13:39:00.761Z,25.90
2019-04-22T13:41:39.601Z,25.50
2019-04-22T13:44:02.030Z,25.20
2019-04-22T13:46:33.576Z,25.20
2019-04-22T13:49:31.593Z,25.20
2019-04-22T13:52:02.393Z,25.10
2019-04-22T13:56:55.485Z,25.10
2019-04-22T13:59:17.633Z,25.20
2019-04-22T14:02:00.821Z,25.00
2019-04-22T14:04:34.732Z,24.70
2019-04-22T14:07:05.153Z,24.60
2019-04-22T14:09:35.930Z,24.50
2019-04-22T14:12:07.388Z,24.50
2019-04-22T14:14:39.201Z,24.70
2019-04-22T14:17:09.017Z,24.70
2019-04-22T14:19:39.146Z,24.60
2019-04-22T14:22:09.630Z,24.60
2019-04-22T14:24:40.648Z,24.60
2019-04-22T14:27:22.157Z,24.70
2019-04-22T14:29:41.968Z,24.90
2019-04-22T14:32:18.864Z,24.80
2019-04-22T14:34:42.806Z,24.70
2019-04-22T14:37:12.167Z,24.80
2019-04-22T14:39:42.013Z,24.90
2019-04-22T14:42:28.366Z,24.80
2019-04-22T14:45:18.416Z,24.80
2019-04-22T14:47:41.061Z,24.80
2019-04-22T14:50:05.037Z,24.70
2019-04-22T14:52:44.511Z,24.60
2019-04-22T14:54:59.480Z,24.40
2019-04-22T14:57:19.232Z,24.50
2019-04-22T14:59:48.512Z,24.40
2019-04-22T15:02:19.618Z,24.60
2019-04-22T15:04:50.078Z,24.60
2019-04-22T15:07:21.006Z,24.60
2019-04-22T15:09:52.111Z,24.70
2019-04-22T15:12:31.225Z,24.60
2019-04-22T15:14:53.415Z,24.50
2019-04-22T15:17:42.916Z,24.50
2019-04-22T15:20:23.669Z,24.70
2019-04-22T15:22:54.648Z,24.70
2019-04-22T15:25:24.110Z,24.60
2019-04-22T15:27:53.482Z,24.70
2019-04-22T15:30:23.561Z,24.70
2019-04-22T15:32:53.677Z,24.60
2019-04-22T15:35:23.233Z,24.50
2019-04-22T15:37:53.106Z,24.30
2019-04-22T15:40:22.727Z,24.20
2019-04-22T15:42:53.025Z,24.20
2019-04-22T15:45:24.300Z,24.20
2019-04-22T15:47:53.563Z,24.20
2019-04-22T15:50:22.859Z,24.20
2019-04-22T15:52:56.607Z,24.10
2019-04-22T15:55:22.960Z,24.20
2019-04-22T15:57:52.137Z,24.20
2019-04-22T16:00:35.251Z,24.20
2019-04-22T16:02:52.168Z,24.10
2019-04-22T16:05:22.572Z,24.10
2019-04-22T16:07:53.017Z,24.10
2019-04-22T16:10:23.798Z,24.10
2019-04-22T16:13:03.493Z,24.00
2019-04-22T16:15:24.964Z,24.00
2019-04-22T16:17:54.980Z,24.00
2019-04-22T16:20:25.869Z,24.00
2019-04-22T16:23:20.820Z,23.90
2019-04-22T16:25:55.492Z,23.80
2019-04-22T16:28:25.158Z,23.80
2019-04-22T16:30:55.342Z,23.90
2019-04-22T16:33:25.648Z,23.80
2019-04-22T16:35:55.100Z,23.80
2019-04-22T16:38:24.801Z,23.80
2019-04-22T16:40:54.730Z,23.70
2019-04-22T16:43:26.533Z,23.60
2019-04-22T16:45:55.991Z,23.50
2019-04-22T16:48:25.829Z,23.40
2019-04-22T16:50:56.353Z,23.50
2019-04-22T16:53:27.258Z,23.50
2019-04-22T16:55:57.133Z,23.40
2019-04-22T16:58:28.477Z,23.20
2019-04-22T17:00:58.864Z,23.20
2019-04-22T17:03:54.361Z,23.10
2019-04-22T17:06:33.468Z,23.10
2019-04-22T17:09:04.980Z,23.00
2019-04-22T17:11:34.177Z,23.00
2019-04-22T17:14:03.530Z,23.00
2019-04-22T17:16:32.772Z,23.00
2019-04-22T17:19:02.594Z,22.90
2019-04-22T17:21:32.061Z,22.70
2019-04-22T17:24:01.465Z,22.70
2019-04-22T17:26:30.829Z,22.70
2019-04-22T17:29:20.688Z,22.70
2019-04-22T17:31:56.919Z,22.50
2019-04-22T17:34:21.351Z,22.40
2019-04-22T17:36:51.004Z,22.30
2019-04-22T17:39:33.056Z,22.30
2019-04-22T17:42:08.216Z,22.20
2019-04-22T17:44:48.350Z,22.00
2019-04-22T17:47:36.485Z,21.90
2019-04-22T17:50:18.278Z,21.80
2019-04-22T17:52:54.795Z,21.70
2019-04-22T17:55:19.113Z,21.60
2019-04-22T17:57:49.213Z,21.60
2019-04-22T18:00:23.569Z,21.60
2019-04-22T18:02:45.909Z,21.50
2019-04-22T18:05:05.896Z,21.50
2019-04-22T18:07:55.921Z,21.50
2019-04-22T18:13:01.818Z,21.30
2019-04-22T18:15:24.113Z,21.10
2019-04-22T18:18:06.870Z,21.00
2019-04-22T18:20:23.632Z,21.00
2019-04-22T18:22:52.256Z,20.80
2019-04-22T18:25:27.723Z,20.70
2019-04-22T18:28:15.202Z,20.50
2019-04-22T18:30:30.147Z,20.40
2019-04-22T18:33:11.750Z,20.40
2019-04-22T18:35:36.061Z,20.30
2019-04-22T18:38:26.876Z,20.20
2019-04-22T18:40:38.413Z,20.10
2019-04-22T18:43:17.113Z,20.00
2019-04-22T18:45:47.456Z,20.10
2019-04-22T18:48:06.384Z,20.10
2019-04-22T18:51:09.636Z,20.00
2019-04-22T18:53:44.644Z,19.90
2019-04-22T18:56:19.232Z,19.80
2019-04-22T18:58:40.617Z,19.70
2019-04-22T19:01:01.813Z,19.70
2019-04-22T19:03:42.708Z,19.50
2019-04-22T19:06:36.272Z,19.40
2019-04-22T19:08:55.605Z,19.40
2019-04-22T19:11:35.523Z,19.30
2019-04-22T19:14:02.301Z,19.30
2019-04-22T19:16:38.258Z,19.20
2019-04-22T19:19:20.648Z,19.20
2019-04-22T19:21:25.304Z,19.20
2019-04-22T19:24:00.338Z,19.10
2019-04-22T19:26:46.028Z,19.00
2019-04-22T19:28:59.910Z,19.00
2019-04-22T19:31:37.277Z,19.00
2019-04-22T19:34:03.337Z,19.00
2019-04-22T19:36:40.883Z,19.00
2019-04-22T19:39:04.417Z,19.00
2019-04-22T19:41:40.737Z,18.90
2019-04-22T19:44:08.479Z,18.90
2019-04-22T19:46:42.462Z,18.80
2019-04-22T19:49:22.014Z,18.90
2019-04-22T19:54:13.945Z,18.70
2019-04-22T19:56:36.748Z,18.60
2019-04-22T19:59:12.195Z,18.70
2019-04-22T20:02:06.064Z,18.60
2019-04-22T20:05:07.654Z,18.60
2019-04-22T20:07:48.805Z,18.70
2019-04-22T20:10:17.222Z,18.60
2019-04-22T20:12:42.833Z,18.50
2019-04-22T20:15:13.873Z,18.40
2019-04-22T20:18:11.701Z,18.30
2019-04-22T20:20:23.125Z,18.20
2019-04-22T20:22:50.613Z,18.30
2019-04-22T20:25:12.986Z,18.20
2019-04-22T20:27:54.802Z,18.20
2019-04-22T20:30:29.973Z,18.10
2019-04-22T20:32:51.414Z,18.10
2019-04-22T20:35:32.771Z,18.00
2019-04-22T20:38:04.247Z,17.90
2019-04-22T20:40:31.643Z,17.90
2019-04-22T20:43:09.940Z,17.90
2019-04-22T20:45:34.878Z,17.80
2019-04-22T20:47:53.913Z,17.80
2019-04-22T20:50:39.461Z,17.90
2019-04-22T20:53:14.629Z,18.10
2019-04-22T20:55:40.403Z,18.10
2019-04-22T20:58:13.577Z,18.20
2019-04-22T21:00:36.340Z,18.30
2019-04-22T21:03:05.186Z,18.40
2019-04-22T21:05:39.521Z,18.50
2019-04-22T21:10:52.162Z,18.50
2019-04-22T21:13:30.541Z,18.40
2019-04-22T21:16:09.327Z,18.30
2019-04-22T21:18:30.540Z,18.40
2019-04-22T21:21:08.530Z,18.30
2019-04-22T21:23:32.926Z,18.20
2019-04-22T21:26:08.012Z,18.00
2019-04-22T21:28:41.999Z,17.90
2019-04-22T21:31:14.838Z,17.80
2019-04-22T21:33:44.667Z,17.60
2019-04-22T21:36:20.642Z,17.40
2019-04-22T21:38:43.649Z,17.20
2019-04-22T21:41:16.007Z,17.00
2019-04-22T21:43:50.039Z,16.80
2019-04-22T21:46:20.851Z,16.70
2019-04-22T21:48:46.352Z,16.60
2019-04-22T21:51:27.885Z,16.40
2019-04-22T21:54:02.051Z,16.30
2019-04-22T21:56:38.250Z,16.20
2019-04-22T21:58:57.460Z,16.10
2019-04-22T22:01:52.756Z,16.00
2019-04-22T22:04:20.737Z,16.00
2019-04-22T22:06:40.966Z,15.90
2019-04-22T22:09:28.085Z,15.80
2019-04-22T22:11:49.253Z,15.70
2019-04-22T22:14:22.551Z,15.70
2019-04-22T22:16:47.488Z,15.70
2019-04-22T22:19:22.432Z,15.60
2019-04-22T22:22:30.201Z,15.50
2019-04-22T22:24:35.924Z,15.40
2019-04-22T22:27:04.928Z,15.20
2019-04-22T22:29:47.973Z,15.20
2019-04-22T22:32:09.346Z,15.20
2019-04-22T22:34:34.938Z,15.20
2019-04-22T22:37:00.364Z,15.20
2019-04-22T22:39:29.469Z,15.20
2019-04-22T22:41:45.911Z,15.20
2019-04-22T22:44:24.423Z,15.10
2019-04-22T22:47:03.408Z,15.10
2019-04-22T22:49:42.769Z,15.10
2019-04-22T22:52:36.514Z,15.20
2019-04-22T22:54:39.289Z,15.40
2019-04-22T22:57:21.444Z,15.50
2019-04-22T22:59:45.844Z,15.60
2019-04-22T23:02:14.202Z,15.60
2019-04-22T23:04:45.876Z,15.70
2019-04-22T23:07:22.723Z,15.70
2019-04-22T23:09:47.871Z,15.60
2019-04-22T23:12:30.762Z,15.50
2019-04-22T23:14:51.457Z,15.50
2019-04-22T23:17:07.018Z,15.40
2019-04-22T23:19:32.610Z,15.40
2019-04-22T23:22:06.259Z,15.30
2019-04-22T23:25:24.772Z,15.20
2019-04-22T23:27:52.520Z,15.10
2019-04-22T23:30:43.329Z,15.00
2019-04-22T23:33:27.702Z,14.90
2019-04-22T23:36:06.296Z,14.90
2019-04-22T23:38:47.657Z,14.80
2019-04-22T23:41:39.258Z,14.70
2019-04-22T23:44:10.009Z,14.70
2019-04-22T23:46:37.945Z,14.70
2019-04-22T23:49:08.762Z,14.60
2019-04-22T23:51:51.670Z,14.70
2019-04-22T23:54:18.794Z,14.60
2019-04-22T23:56:43.523Z,14.30
2019-04-22T23:59:38.303Z,14.20
